Time;durP1;ratioP1;P1;durP2;ratioP2;P2;SDS_P1;SDS_P2;PMS_P1;PMS_P2;Temp;Humidity;BMP_temperature;BMP_pressure;BME280_temperature;BME280_humidity;BME280_pressure;Samples;Min_cycle;Max_cycle;Signal;HPM_P1;HPM_P2
2022/08/15 00:02:04;;;;;;;3.30;3.00;;;25.20;47.00;;;;;;5037306;28;20204;-78
2022/08/15 00:04:31;;;;;;;3.20;2.80;;;25.20;47.00;;;;;;5021337;28;20687;-78
2022/08/15 00:06:58;;;;;;;3.17;2.88;;;25.20;47.00;;;;;;5020726;28;20203;-78
2022/08/15 00:09:27;;;;;;;3.10;2.80;;;25.20;47.00;;;;;;5037334;28;20287;-77
2022/08/15 00:11:55;;;;;;;3.35;2.70;;;25.10;46.90;;;;;;5040286;28;20685;-78
2022/08/15 00:14:24;;;;;;;3.38;3.13;;;25.10;47.00;;;;;;5039597;28;20203;-78
2022/08/15 00:16:51;;;;;;;3.60;2.83;;;25.10;47.10;;;;;;5036498;28;20675;-78
2022/08/15 00:19:19;;;;;;;3.28;2.72;;;25.10;47.10;;;;;;5037996;28;20220;-78
2022/08/15 00:21:47;;;;;;;3.25;2.95;;;25.20;47.30;;;;;;5037818;28;20192;-78
2022/08/15 00:24:16;;;;;;;3.00;2.80;;;25.10;47.30;;;;;;5004377;28;20270;-79
2022/08/15 00:26:45;;;;;;;3.30;3.00;;;25.10;47.30;;;;;;5037908;28;20614;-79
2022/08/15 00:29:12;;;;;;;3.72;3.00;;;25.10;47.30;;;;;;5021129;28;20216;-79
2022/08/15 00:31:40;;;;;;;4.15;3.25;;;25.10;47.30;;;;;;5037726;28;20298;-78
2022/08/15 00:34:07;;;;;;;3.00;2.80;;;25.10;47.40;;;;;;5037476;28;20200;-78
2022/08/15 00:36:36;;;;;;;3.67;3.00;;;25.10;47.30;;;;;;5036770;28;20200;-78
2022/08/15 00:39:04;;;;;;;2.83;2.63;;;25.10;47.40;;;;;;5020438;28;20269;-78
2022/08/15 00:41:39;;;;;;;2.90;2.70;;;25.10;47.40;;;;;;5037414;28;20291;-78
2022/08/15 00:44:12;;;;;;;3.00;2.75;;;25.10;47.50;;;;;;5037390;28;20216;-77
2022/08/15 00:46:39;;;;;;;3.08;2.88;;;25.10;47.60;;;;;;5037660;28;20226;-79
2022/08/15 00:49:06;;;;;;;3.10;2.90;;;25.10;47.60;;;;;;5036670;28;20220;-78
2022/08/15 00:51:36;;;;;;;3.10;2.90;;;25.10;48.30;;;;;;5036984;28;20207;-78
2022/08/15 00:54:05;;;;;;;2.90;2.70;;;25.10;47.90;;;;;;5036844;28;20192;-77
2022/08/15 00:56:34;;;;;;;3.17;2.88;;;25.10;48.00;;;;;;5036558;28;20267;-79
2022/08/15 00:59:01;;;;;;;3.38;3.00;;;25.00;48.00;;;;;;5036518;28;20212;-79
2022/08/15 01:01:30;;;;;;;3.58;3.28;;;25.10;48.10;;;;;;5036880;28;20722;-78
2022/08/15 01:03:57;;;;;;;3.40;3.15;;;25.10;48.20;;;;;;5036151;28;20216;-78
2022/08/15 01:06:26;;;;;;;3.53;3.22;;;25.00;48.20;;;;;;5036057;28;20266;-78
2022/08/15 01:08:53;;;;;;;3.40;2.80;;;25.00;48.30;;;;;;5035435;28;20635;-78
2022/08/15 01:11:26;;;;;;;3.40;3.10;;;25.00;48.40;;;;;;5035564;28;20673;-78
2022/08/15 01:13:54;;;;;;;3.35;3.10;;;25.00;48.40;;;;;;5036231;28;20196;-78
2022/08/15 01:16:22;;;;;;;2.95;2.70;;;25.00;48.30;;;;;;5035874;28;20204;-78
2022/08/15 01:18:51;;;;;;;3.42;3.13;;;25.00;48.10;;;;;;5035571;28;20216;-77
2022/08/15 01:21:23;;;;;;;3.30;3.10;;;25.00;48.10;;;;;;5035669;28;20235;-78
2022/08/15 01:23:56;;;;;;;3.20;2.90;;;25.00;48.10;;;;;;5035692;28;20275;-78
2022/08/15 01:26:25;;;;;;;2.95;2.75;;;24.90;48.10;;;;;;5035874;28;20188;-77
2022/08/15 01:28:53;;;;;;;3.10;2.90;;;24.90;48.20;;;;;;5035404;28;20721;-79
2022/08/15 01:31:21;;;;;;;3.58;3.28;;;24.90;48.50;;;;;;5035611;28;20235;-78
2022/08/15 01:33:49;;;;;;;3.38;2.92;;;24.90;48.40;;;;;;5035627;28;20271;-78
2022/08/15 01:36:16;;;;;;;3.30;3.03;;;24.90;48.40;;;;;;5035198;28;20199;-78
2022/08/15 01:38:47;;;;;;;3.50;3.20;;;25.00;48.60;;;;;;5037572;28;20216;-77
2022/08/15 01:41:19;;;;;;;3.47;3.10;;;24.90;48.50;;;;;;5036695;28;20635;-78
2022/08/15 01:43:52;;;;;;;3.50;3.20;;;24.90;48.50;;;;;;5035844;28;20200;-77
2022/08/15 01:46:19;;;;;;;3.47;3.25;;;24.90;48.60;;;;;;5036335;28;20192;-78
2022/08/15 01:48:49;;;;;;;3.60;3.30;;;24.90;48.60;;;;;;5035152;28;20224;-77
2022/08/15 01:51:18;;;;;;;3.28;3.03;;;24.90;48.70;;;;;;5035010;28;20196;-78
2022/08/15 01:53:47;;;;;;;3.35;3.10;;;24.90;48.80;;;;;;5035871;28;20204;-78
2022/08/15 01:56:18;;;;;;;3.47;3.20;;;24.90;48.90;;;;;;5034860;28;20207;-78
2022/08/15 01:58:48;;;;;;;3.53;3.22;;;24.90;48.90;;;;;;5019037;28;20220;-79
2022/08/15 02:01:17;;;;;;;3.33;3.13;;;24.90;48.90;;;;;;5035418;28;20200;-78
2022/08/15 02:03:45;;;;;;;3.50;3.30;;;24.80;49.00;;;;;;5034927;28;20569;-77
2022/08/15 02:06:14;;;;;;;3.78;3.25;;;24.80;49.10;;;;;;5035259;28;20262;-78
2022/08/15 02:08:43;;;;;;;3.35;3.10;;;24.90;49.20;;;;;;5035356;28;20220;-79
2022/08/15 02:11:13;;;;;;;3.60;3.30;;;24.80;49.20;;;;;;5035164;28;20671;-77
2022/08/15 02:13:44;;;;;;;3.60;3.30;;;24.80;49.20;;;;;;5035249;28;20188;-78
2022/08/15 02:16:13;;;;;;;3.28;2.97;;;24.80;49.30;;;;;;5035486;28;20219;-78
2022/08/15 02:18:40;;;;;;;3.65;3.25;;;24.80;49.40;;;;;;5035154;28;20212;-79
2022/08/15 02:21:07;;;;;;;3.50;3.20;;;24.80;49.30;;;;;;5037718;28;20258;-78
2022/08/15 02:23:35;;;;;;;3.55;3.25;;;24.80;49.60;;;;;;5039456;28;20666;-79
2022/08/15 02:26:02;;;;;;;3.35;3.10;;;24.80;49.50;;;;;;5040533;28;20219;-78
2022/08/15 02:28:30;;;;;;;3.67;3.38;;;24.80;49.60;;;;;;5039556;28;20215;-79
2022/08/15 02:31:00;;;;;;;3.55;3.25;;;24.80;49.60;;;;;;5023544;28;20231;-77
2022/08/15 02:33:29;;;;;;;3.78;3.47;;;24.80;49.60;;;;;;5039696;28;20720;-78
2022/08/15 02:35:58;;;;;;;3.55;3.30;;;24.80;49.60;;;;;;5039809;28;20192;-79
2022/08/15 02:38:25;;;;;;;3.53;3.22;;;24.80;49.60;;;;;;5039009;28;20220;-78
2022/08/15 02:40:52;;;;;;;3.38;3.17;;;24.80;49.60;;;;;;5039584;28;20200;-77
2022/08/15 02:43:22;;;;;;;3.38;3.17;;;24.70;49.60;;;;;;5023430;28;20242;-79
2022/08/15 02:45:50;;;;;;;3.95;3.55;;;24.80;49.60;;;;;;5039732;28;20299;-78
2022/08/15 02:48:18;;;;;;;3.50;3.30;;;24.70;49.60;;;;;;5038777;28;20219;-78
2022/08/15 02:50:49;;;;;;;3.50;3.20;;;24.80;49.80;;;;;;5039163;28;20207;-77
2022/08/15 02:53:19;;;;;;;3.47;3.17;;;24.70;49.80;;;;;;5039855;28;20192;-77
2022/08/15 02:55:47;;;;;;;3.75;3.40;;;24.70;49.90;;;;;;5038473;28;20192;-78
2022/08/15 02:58:15;;;;;;;3.33;3.13;;;24.70;49.80;;;;;;5039113;28;20251;-77
2022/08/15 03:00:43;;;;;;;3.70;3.40;;;24.70;49.90;;;;;;5022612;28;20268;-78
2022/08/15 03:03:11;;;;;;;3.33;3.13;;;24.70;49.90;;;;;;5038606;28;20207;-78
2022/08/15 03:05:40;;;;;;;3.38;3.08;;;24.70;50.00;;;;;;5038494;28;20220;-78
2022/08/15 03:08:08;;;;;;;4.22;3.42;;;24.70;50.00;;;;;;5038176;28;20729;-78
2022/08/15 03:10:37;;;;;;;3.65;3.35;;;24.70;50.40;;;;;;5038304;28;20265;-78
2022/08/15 03:13:07;;;;;;;3.78;3.47;;;24.70;50.70;;;;;;5038473;28;20331;-78
2022/08/15 03:15:40;;;;;;;3.60;3.30;;;24.70;51.10;;;;;;5038638;28;20200;-79
2022/08/15 03:18:07;;;;;;;3.50;3.20;;;24.70;51.60;;;;;;5038492;28;20216;-79
2022/08/15 03:20:35;;;;;;;3.30;3.00;;;24.80;51.60;;;;;;5038412;28;20226;-79
2022/08/15 03:23:03;;;;;;;3.40;3.20;;;24.80;51.70;;;;;;5021545;28;20290;-78
2022/08/15 03:25:40;;;;;;;3.67;3.38;;;24.90;51.60;;;;;;5022265;28;20220;-78
2022/08/15 03:28:08;;;;;;;3.70;3.40;;;24.90;51.30;;;;;;5037875;28;20212;-77
2022/08/15 03:30:36;;;;;;;3.47;3.20;;;24.90;51.40;;;;;;5037842;28;20208;-78
2022/08/15 03:33:04;;;;;;;3.50;3.20;;;25.00;51.30;;;;;;5036874;28;20271;-77
2022/08/15 03:35:39;;;;;;;3.38;3.17;;;25.10;51.10;;;;;;5020577;28;20201;-77
2022/08/15 03:38:06;;;;;;;3.40;3.10;;;25.10;51.00;;;;;;5037436;28;20220;-78
2022/08/15 03:40:37;;;;;;;3.70;3.38;;;25.10;50.90;;;;;;5038142;28;20720;-78
2022/08/15 03:43:06;;;;;;;3.85;3.15;;;25.10;50.80;;;;;;5038573;28;20192;-77
2022/08/15 03:45:34;;;;;;;3.60;3.17;;;25.10;50.70;;;;;;5038361;28;20219;-78
2022/08/15 03:48:02;;;;;;;3.25;3.05;;;25.20;50.80;;;;;;5021860;28;20212;-78
2022/08/15 03:50:32;;;;;;;3.22;3.00;;;25.20;50.60;;;;;;5037841;28;20196;-78
2022/08/15 03:53:04;;;;;;;3.42;3.13;;;25.20;50.70;;;;;;5006707;28;20244;-78
2022/08/15 03:55:33;;;;;;;3.80;3.05;;;25.20;50.50;;;;;;5037861;28;20200;-78
2022/08/15 03:58:01;;;;;;;2.97;2.70;;;25.20;50.60;;;;;;5036998;28;20218;-78
2022/08/15 04:00:34;;;;;;;3.55;3.00;;;25.20;50.50;;;;;;5036775;28;20202;-79
2022/08/15 04:03:06;;;;;;;3.40;3.13;;;25.30;50.60;;;;;;5038686;28;20176;-77
2022/08/15 04:05:34;;;;;;;3.42;3.13;;;25.30;50.50;;;;;;5036392;28;20218;-79
2022/08/15 04:08:03;;;;;;;4.35;2.80;;;25.30;50.40;;;;;;5035515;28;20212;-79
2022/08/15 04:10:30;;;;;;;3.08;2.88;;;25.30;50.50;;;;;;5035490;28;20646;-77
2022/08/15 04:12:57;;;;;;;3.38;3.08;;;25.30;50.60;;;;;;5036262;28;20200;-77
2022/08/15 04:15:25;;;;;;;4.88;3.53;;;25.30;50.60;;;;;;5036656;28;20192;-79
2022/08/15 04:17:53;;;;;;;4.05;3.17;;;25.20;53.40;;;;;;5057007;28;20207;-79
2022/08/15 04:20:22;;;;;;;3.50;3.20;;;25.00;54.60;;;;;;5044380;28;20201;-79
2022/08/15 04:22:49;;;;;;;3.45;2.90;;;24.80;55.20;;;;;;5048779;28;20192;-80
2022/08/15 04:25:18;;;;;;;4.00;3.25;;;24.70;55.90;;;;;;5035589;28;20224;-79
2022/08/15 04:27:47;;;;;;;3.60;3.25;;;24.50;56.10;;;;;;5035147;28;20596;-79
2022/08/15 04:30:14;;;;;;;5.10;3.30;;;24.40;56.00;;;;;;5035061;28;20204;-79
2022/08/15 04:32:42;;;;;;;3.40;3.10;;;24.30;56.40;;;;;;5034821;28;20199;-77
2022/08/15 04:35:11;;;;;;;3.83;2.90;;;24.30;56.40;;;;;;5035395;28;20195;-77
2022/08/15 04:37:40;;;;;;;3.63;2.83;;;24.20;56.70;;;;;;5036025;28;20212;-79
2022/08/15 04:40:09;;;;;;;3.58;2.90;;;24.20;56.80;;;;;;5034537;28;20200;-77
2022/08/15 04:42:46;;;;;;;3.42;3.10;;;24.20;57.40;;;;;;5034929;28;20200;-79
2022/08/15 04:45:14;;;;;;;4.85;3.00;;;24.10;57.20;;;;;;5034319;28;20639;-77
2022/08/15 04:47:43;;;;;;;3.30;3.00;;;24.00;56.40;;;;;;5018408;28;20235;-77
2022/08/15 04:50:11;;;;;;;4.38;3.13;;;24.00;56.50;;;;;;5018069;28;20629;-78
2022/08/15 04:52:43;;;;;;;4.18;3.38;;;24.00;56.60;;;;;;5017968;28;20224;-78
2022/08/15 04:55:10;;;;;;;4.80;3.25;;;24.00;56.70;;;;;;5034645;28;20199;-79
2022/08/15 04:57:38;;;;;;;4.60;3.22;;;24.00;56.40;;;;;;5034655;28;20223;-78
2022/08/15 05:00:08;;;;;;;4.30;3.08;;;24.10;55.90;;;;;;5035679;28;20200;-77
2022/08/15 05:03:09;;;;;;;3.47;2.80;;;24.20;55.20;;;;;;5022293;28;20350;-78
2022/08/15 05:05:41;;;;;;;4.55;3.28;;;24.30;54.80;;;;;;5034729;28;20212;-77
2022/08/15 05:08:09;;;;;;;5.40;3.25;;;24.30;54.20;;;;;;5034103;28;20274;-78
2022/08/15 05:10:37;;;;;;;4.82;3.10;;;24.30;54.20;;;;;;5035173;28;20291;-78
2022/08/15 05:13:11;;;;;;;3.83;3.10;;;24.30;54.30;;;;;;5034297;28;20192;-79
2022/08/15 05:15:39;;;;;;;3.97;2.92;;;24.40;54.20;;;;;;5033827;28;20195;-78
2022/08/15 05:18:07;;;;;;;3.55;3.25;;;24.40;53.80;;;;;;5033813;28;20216;-78
2022/08/15 05:20:34;;;;;;;3.08;2.88;;;24.50;53.30;;;;;;5033859;28;20295;-78
2022/08/15 05:23:03;;;;;;;3.05;2.85;;;24.50;53.10;;;;;;5033712;28;20204;-78
2022/08/15 05:25:37;;;;;;;3.63;2.70;;;24.50;52.90;;;;;;5034307;28;20261;-78
2022/08/15 05:28:05;;;;;;;2.78;2.58;;;24.50;52.90;;;;;;5033815;28;20220;-78
2022/08/15 05:30:32;;;;;;;2.90;2.70;;;24.50;52.60;;;;;;5033483;28;20596;-78
2022/08/15 05:33:04;;;;;;;3.85;2.47;;;24.50;52.60;;;;;;5034501;28;20203;-78
2022/08/15 05:35:31;;;;;;;3.28;2.70;;;24.50;52.50;;;;;;5033385;28;20274;-78
2022/08/15 05:37:59;;;;;;;2.85;2.65;;;24.60;52.50;;;;;;5033339;28;20219;-77
2022/08/15 05:40:30;;;;;;;2.55;2.25;;;24.60;52.50;;;;;;5033315;28;20223;-75
2022/08/15 05:43:00;;;;;;;3.50;2.40;;;24.60;52.40;;;;;;5033628;28;20204;-77
2022/08/15 05:45:32;;;;;;;3.22;2.85;;;24.60;52.60;;;;;;5033631;28;20224;-77
2022/08/15 05:48:03;;;;;;;3.10;2.65;;;24.70;52.70;;;;;;5032976;28;20311;-77
2022/08/15 05:50:32;;;;;;;2.83;2.47;;;24.70;52.70;;;;;;5034376;28;20583;-76
2022/08/15 05:53:08;;;;;;;2.80;2.60;;;24.70;52.50;;;;;;5033002;28;20198;-75
2022/08/15 05:55:41;;;;;;;4.25;2.67;;;24.70;52.30;;;;;;5032391;28;20550;-74
2022/08/15 05:58:23;;;;;;;3.45;2.45;;;24.80;52.20;;;;;;5032763;28;20250;-75
2022/08/15 06:00:59;;;;;;;2.88;2.67;;;24.90;52.20;;;;;;5032730;28;20184;-75
2022/08/15 06:03:27;;;;;;;2.85;2.55;;;24.90;51.90;;;;;;5033080;28;20223;-78
2022/08/15 06:05:55;;;;;;;2.40;2.20;;;24.90;51.80;;;;;;5032964;28;20714;-77
2022/08/15 06:08:25;;;;;;;2.63;2.42;;;25.00;51.70;;;;;;5033034;28;20223;-77
2022/08/15 06:10:55;;;;;;;2.58;2.40;;;25.00;51.60;;;;;;5032961;28;20732;-77
2022/08/15 06:13:24;;;;;;;2.67;2.47;;;25.00;51.40;;;;;;5033183;28;20200;-78
2022/08/15 06:15:53;;;;;;;2.58;2.33;;;25.00;51.20;;;;;;5033177;28;20226;-78
2022/08/15 06:18:21;;;;;;;3.50;2.70;;;25.10;51.20;;;;;;5033503;28;20585;-78
2022/08/15 06:20:53;;;;;;;2.45;2.25;;;25.10;51.10;;;;;;5033151;28;20227;-77
2022/08/15 06:23:25;;;;;;;3.40;2.58;;;25.10;51.10;;;;;;5033398;28;20612;-78
2022/08/15 06:26:05;;;;;;;3.03;2.50;;;25.10;51.00;;;;;;5032903;28;20307;-78
2022/08/15 06:28:45;;;;;;;2.40;2.20;;;25.20;51.00;;;;;;5033489;28;20216;-78
2022/08/15 06:31:17;;;;;;;2.60;2.40;;;25.20;50.90;;;;;;5032935;28;20215;-78
2022/08/15 06:33:48;;;;;;;2.53;2.33;;;25.20;50.90;;;;;;5033114;28;20286;-78
2022/08/15 06:36:17;;;;;;;2.97;2.40;;;25.20;50.80;;;;;;5032893;28;20211;-78
2022/08/15 06:38:48;;;;;;;3.05;2.42;;;25.20;50.70;;;;;;5034047;28;20212;-77
2022/08/15 06:41:22;;;;;;;2.72;2.50;;;25.20;50.50;;;;;;5033402;28;20246;-78
2022/08/15 06:43:51;;;;;;;3.33;2.65;;;25.30;50.60;;;;;;5033628;28;20200;-77
2022/08/15 06:46:33;;;;;;;3.42;2.42;;;25.30;50.40;;;;;;5033958;28;20212;-77
2022/08/15 06:49:01;;;;;;;2.75;2.53;;;25.30;50.40;;;;;;5032706;28;20273;-78
2022/08/15 06:51:28;;;;;;;2.85;2.40;;;25.30;50.20;;;;;;5032194;28;20283;-78
2022/08/15 06:53:56;;;;;;;2.40;2.20;;;25.40;50.10;;;;;;5016206;28;20202;-77
2022/08/15 06:56:40;;;;;;;2.63;2.42;;;25.40;50.00;;;;;;5032305;28;20188;-78
2022/08/15 06:59:09;;;;;;;2.70;2.10;;;25.50;50.00;;;;;;5032682;28;20274;-78
2022/08/15 07:01:44;;;;;;;2.20;2.10;;;25.70;49.50;;;;;;5032604;28;20663;-78
2022/08/15 07:04:16;;;;;;;2.30;2.10;;;25.80;49.10;;;;;;5033019;28;20188;-77
2022/08/15 07:06:46;;;;;;;2.45;2.20;;;25.90;49.50;;;;;;5032289;28;20208;-78
2022/08/15 07:09:28;;;;;;;2.15;2.00;;;26.00;48.80;;;;;;5035766;28;20216;-78
2022/08/15 07:12:10;;;;;;;2.80;2.40;;;26.20;48.50;;;;;;5035860;28;20199;-77
2022/08/15 07:14:43;;;;;;;2.53;2.10;;;26.40;47.90;;;;;;5036558;28;20196;-77
2022/08/15 07:17:14;;;;;;;2.35;2.15;;;26.60;47.60;;;;;;5035862;28;20198;-78
2022/08/15 07:19:41;;;;;;;2.83;2.03;;;26.90;47.10;;;;;;5036194;28;20203;-77
2022/08/15 07:22:24;;;;;;;2.42;2.17;;;27.10;46.50;;;;;;5036759;28;20188;-78
2022/08/15 07:24:53;;;;;;;2.92;2.22;;;27.40;46.00;;;;;;5019358;28;20307;-77
2022/08/15 07:27:28;;;;;;;2.58;2.13;;;27.60;45.50;;;;;;5035562;28;20208;-77
2022/08/15 07:30:00;;;;;;;2.22;2.13;;;27.80;45.00;;;;;;5036197;28;20208;-78
2022/08/15 07:32:31;;;;;;;2.15;2.05;;;28.00;44.70;;;;;;5019418;28;20200;-78
2022/08/15 07:35:02;;;;;;;3.15;2.20;;;28.10;44.20;;;;;;5036732;28;20192;-78
2022/08/15 07:37:32;;;;;;;2.45;1.95;;;28.20;43.90;;;;;;5035356;28;20223;-78
2022/08/15 07:40:07;;;;;;;2.50;1.88;;;28.30;43.70;;;;;;5035508;28;20199;-77
2022/08/15 07:42:42;;;;;;;2.50;2.10;;;28.40;43.60;;;;;;5035589;28;20223;-77
2022/08/15 07:45:18;;;;;;;2.20;2.00;;;28.30;43.70;;;;;;5036235;28;20249;-77
2022/08/15 07:47:55;;;;;;;2.20;2.08;;;28.20;43.80;;;;;;5035279;28;20648;-77
2022/08/15 07:50:33;;;;;;;2.67;2.08;;;28.00;44.20;;;;;;5020018;28;20196;-77
2022/08/15 07:53:05;;;;;;;2.95;2.38;;;27.90;44.50;;;;;;5040457;28;20283;-78
2022/08/15 07:55:32;;;;;;;2.08;1.98;;;27.70;44.70;;;;;;5036092;28;20223;-78
2022/08/15 07:58:02;;;;;;;2.10;1.90;;;27.70;44.70;;;;;;5035163;28;20220;-78
2022/08/15 08:00:30;;;;;;;2.10;1.90;;;27.90;44.60;;;;;;5035096;28;20560;-78
2022/08/15 08:03:03;;;;;;;2.25;2.00;;;27.90;44.30;;;;;;5034933;28;20287;-78
2022/08/15 08:05:33;;;;;;;2.42;2.10;;;28.00;44.20;;;;;;5035604;28;20279;-77
2022/08/15 08:08:01;;;;;;;2.35;2.15;;;28.00;44.20;;;;;;5034733;28;20228;-78
2022/08/15 08:10:32;;;;;;;2.38;2.10;;;28.00;44.20;;;;;;5035646;28;20191;-78
2022/08/15 08:13:11;;;;;;;1.90;1.80;;;28.00;44.20;;;;;;5019851;28;20222;-77
2022/08/15 08:15:42;;;;;;;2.28;2.05;;;28.00;44.00;;;;;;5035047;28;20194;-78
2022/08/15 08:18:12;;;;;;;2.17;1.92;;;28.10;44.00;;;;;;5034339;28;20215;-78
2022/08/15 08:20:41;;;;;;;2.42;2.15;;;28.20;43.70;;;;;;5035416;28;20207;-77
2022/08/15 08:23:12;;;;;;;2.10;2.00;;;28.30;43.60;;;;;;5034397;28;20222;-77
2022/08/15 08:25:41;;;;;;;1.67;1.58;;;28.40;43.20;;;;;;5034740;28;20617;-77
2022/08/15 08:28:12;;;;;;;2.03;1.92;;;28.60;42.80;;;;;;5034466;28;20234;-78
2022/08/15 08:30:50;;;;;;;2.10;1.95;;;28.80;42.40;;;;;;5034443;28;20207;-77
2022/08/15 08:33:20;;;;;;;2.25;1.90;;;28.90;42.10;;;;;;5034599;28;20605;-77
2022/08/15 08:35:50;;;;;;;2.38;2.08;;;29.00;41.90;;;;;;5035481;28;20195;-77
2022/08/15 08:38:24;;;;;;;2.10;1.90;;;29.10;41.60;;;;;;5034322;28;20215;-78
2022/08/15 08:43:43;;;;;;;1.90;1.80;;;29.10;41.70;;;;;;5020460;28;20681;-77
2022/08/15 08:46:21;;;;;;;2.10;1.85;;;29.10;41.60;;;;;;5034286;28;20207;-78
2022/08/15 08:48:51;;;;;;;2.40;1.92;;;29.20;41.70;;;;;;5034099;28;20226;-78
2022/08/15 08:51:24;;;;;;;1.90;1.80;;;29.30;41.30;;;;;;5034366;28;20270;-77
2022/08/15 08:53:55;;;;;;;1.90;1.80;;;29.30;41.10;;;;;;5034188;28;20196;-77
2022/08/15 08:56:24;;;;;;;2.00;1.80;;;29.40;40.90;;;;;;5034395;28;20183;-78
2022/08/15 08:58:56;;;;;;;1.73;1.63;;;29.50;40.80;;;;;;5034058;28;20716;-77
2022/08/15 09:01:25;;;;;;;1.83;1.73;;;29.60;40.50;;;;;;5018123;28;20219;-78
2022/08/15 09:03:54;;;;;;;1.85;1.73;;;29.60;40.40;;;;;;5034121;28;20298;-78
2022/08/15 09:06:25;;;;;;;1.83;1.73;;;29.50;40.50;;;;;;5017670;28;20212;-78
2022/08/15 09:08:53;;;;;;;1.70;1.60;;;29.50;40.60;;;;;;5035394;28;20322;-78
2022/08/15 09:11:22;;;;;;;2.90;1.67;;;29.50;40.40;;;;;;5034228;28;20187;-78
2022/08/15 09:13:49;;;;;;;2.40;1.90;;;29.40;40.60;;;;;;5034299;28;20229;-78
2022/08/15 09:16:20;;;;;;;1.80;1.70;;;29.40;40.80;;;;;;5034005;28;20238;-77
2022/08/15 09:18:50;;;;;;;1.90;1.70;;;29.30;40.90;;;;;;5035145;28;20203;-78
2022/08/15 09:21:18;;;;;;;1.98;1.80;;;29.30;40.90;;;;;;5034138;28;20217;-78
2022/08/15 09:23:46;;;;;;;1.70;1.60;;;29.30;40.90;;;;;;5033533;28;20227;-78
2022/08/15 09:26:15;;;;;;;1.70;1.60;;;29.30;40.80;;;;;;5033406;28;20202;-78
2022/08/15 09:28:44;;;;;;;1.70;1.60;;;29.30;40.90;;;;;;5017260;28;20301;-78
2022/08/15 09:31:14;;;;;;;1.92;1.75;;;29.20;41.00;;;;;;5033693;28;20192;-78
2022/08/15 09:34:11;;;;;;;1.80;1.70;;;29.20;40.90;;;;;;5033341;28;20689;-78
2022/08/15 09:37:00;;;;;;;1.98;1.80;;;29.30;41.40;;;;;;5033433;28;20234;-78
2022/08/15 09:39:41;;;;;;;1.60;1.50;;;29.40;40.40;;;;;;5033175;28;20226;-77
2022/08/15 09:42:25;;;;;;;1.92;1.55;;;29.40;40.30;;;;;;5033344;28;20222;-78
2022/08/15 09:44:58;;;;;;;1.60;1.50;;;29.40;40.20;;;;;;5033117;28;20253;-78
2022/08/15 09:47:33;;;;;;;1.80;1.70;;;29.40;41.10;;;;;;5033407;28;20214;-78
2022/08/15 09:50:21;;;;;;;2.17;1.67;;;29.30;40.60;;;;;;5034098;28;20245;-77
2022/08/15 09:52:52;;;;;;;1.70;1.60;;;29.20;40.80;;;;;;5034866;28;20563;-78
2022/08/15 09:55:23;;;;;;;1.95;1.83;;;29.10;41.40;;;;;;5033683;28;20195;-78
2022/08/15 09:57:52;;;;;;;1.90;1.50;;;29.10;41.10;;;;;;5033462;28;20216;-77
2022/08/15 10:00:24;;;;;;;1.77;1.67;;;29.00;41.00;;;;;;5033734;28;20206;-77
2022/08/15 10:02:53;;;;;;;1.70;1.60;;;29.10;41.00;;;;;;5033599;28;20179;-78
2022/08/15 10:05:27;;;;;;;1.80;1.70;;;29.20;40.90;;;;;;5033353;28;20196;-78
2022/08/15 10:07:55;;;;;;;1.73;1.63;;;29.20;40.70;;;;;;5034807;28;20226;-78
2022/08/15 10:10:25;;;;;;;1.70;1.60;;;29.20;40.80;;;;;;5033002;28;20206;-77
2022/08/15 10:13:10;;;;;;;1.55;1.45;;;29.10;40.80;;;;;;5032806;28;20539;-78
2022/08/15 10:15:41;;;;;;;1.60;1.50;;;29.10;40.90;;;;;;5032391;28;20662;-78
2022/08/15 10:18:09;;;;;;;1.60;1.50;;;29.10;40.90;;;;;;5033856;28;20295;-77
2022/08/15 10:20:53;;;;;;;1.60;1.50;;;29.20;40.90;;;;;;5032899;28;20205;-77
2022/08/15 10:23:23;;;;;;;1.75;1.65;;;29.20;40.90;;;;;;5032602;28;20191;-78
2022/08/15 10:25:53;;;;;;;2.63;1.75;;;29.10;40.90;;;;;;5032655;28;20654;-78
2022/08/15 10:28:21;;;;;;;1.70;1.60;;;29.10;40.90;;;;;;5032132;28;20223;-77
2022/08/15 10:31:09;;;;;;;1.85;1.75;;;29.00;41.10;;;;;;5032768;28;20203;-77
2022/08/15 10:33:38;;;;;;;1.85;1.70;;;28.90;41.20;;;;;;5033881;28;20231;-78
2022/08/15 10:36:17;;;;;;;1.80;1.67;;;28.80;41.50;;;;;;5033337;28;20199;-78
2022/08/15 10:38:45;;;;;;;1.70;1.60;;;28.70;41.60;;;;;;5032487;28;20247;-77
2022/08/15 10:41:15;;;;;;;1.60;1.50;;;28.60;41.70;;;;;;5033338;28;20223;-78
2022/08/15 10:44:03;;;;;;;1.80;1.70;;;28.60;41.70;;;;;;5036314;28;20711;-78
2022/08/15 10:46:48;;;;;;;1.88;1.70;;;28.60;41.90;;;;;;5029910;28;20191;-77
2022/08/15 10:49:22;;;;;;;1.65;1.55;;;28.60;41.90;;;;;;5053033;28;20218;-78
2022/08/15 10:52:12;;;;;;;1.60;1.50;;;28.50;41.90;;;;;;5038088;28;20172;-78
2022/08/15 10:54:49;;;;;;;1.70;1.60;;;28.50;42.00;;;;;;5030181;28;20207;-77
2022/08/15 10:57:18;;;;;;;1.80;1.70;;;28.40;42.10;;;;;;5037070;28;20262;-77
2022/08/15 10:59:48;;;;;;;1.70;1.60;;;28.50;42.20;;;;;;5036825;28;20199;-77
2022/08/15 11:02:25;;;;;;;1.67;1.58;;;28.40;42.10;;;;;;5036992;28;20195;-78
2022/08/15 11:04:52;;;;;;;1.63;1.52;;;28.50;42.00;;;;;;5036237;28;20203;-77
2022/08/15 11:07:24;;;;;;;1.70;1.60;;;28.40;41.90;;;;;;5035896;28;20712;-78
2022/08/15 11:09:54;;;;;;;1.67;1.58;;;28.50;42.00;;;;;;5019922;28;20286;-77
2022/08/15 11:12:22;;;;;;;1.77;1.55;;;28.40;42.00;;;;;;5036026;28;20550;-78
2022/08/15 11:14:52;;;;;;;1.60;1.50;;;28.50;42.10;;;;;;5036052;28;20215;-78
2022/08/15 11:17:22;;;;;;;2.03;1.83;;;28.40;42.20;;;;;;5036056;28;20176;-78
2022/08/15 11:19:50;;;;;;;1.70;1.60;;;28.30;42.20;;;;;;5037103;28;20203;-78
2022/08/15 11:22:30;;;;;;;1.55;1.45;;;28.30;42.20;;;;;;5035923;28;20564;-78
2022/08/15 11:25:00;;;;;;;1.77;1.67;;;28.30;42.40;;;;;;5035883;28;20194;-78
2022/08/15 11:27:27;;;;;;;1.73;1.63;;;28.30;42.40;;;;;;5036966;28;20548;-78
2022/08/15 11:29:57;;;;;;;1.67;1.58;;;28.30;42.50;;;;;;5019274;28;20611;-78
2022/08/15 11:32:26;;;;;;;1.63;1.52;;;28.20;42.50;;;;;;5036246;28;20298;-78
2022/08/15 11:34:53;;;;;;;1.50;1.40;;;28.20;42.50;;;;;;5035411;28;20253;-77
2022/08/15 11:37:22;;;;;;;1.75;1.65;;;28.20;42.60;;;;;;5035449;28;20211;-78
2022/08/15 11:39:52;;;;;;;1.70;1.60;;;28.20;42.60;;;;;;5035614;28;20196;-77
2022/08/15 11:42:20;;;;;;;1.67;1.58;;;28.20;42.50;;;;;;5035373;28;20271;-77
2022/08/15 11:44:52;;;;;;;1.80;1.70;;;28.30;42.60;;;;;;5035299;28;20318;-78
2022/08/15 11:47:18;;;;;;;1.70;1.60;;;28.20;42.60;;;;;;5035288;28;20227;-78
2022/08/15 11:49:48;;;;;;;1.58;1.48;;;28.30;42.60;;;;;;5036171;28;20246;-78
2022/08/15 11:52:18;;;;;;;1.70;1.60;;;28.20;42.60;;;;;;5036116;28;20207;-78
2022/08/15 11:54:45;;;;;;;1.75;1.63;;;28.20;42.50;;;;;;5035918;28;20249;-78
2022/08/15 11:57:20;;;;;;;1.83;1.58;;;28.20;42.50;;;;;;5036539;28;20195;-78
2022/08/15 11:59:58;;;;;;;1.63;1.52;;;28.20;42.60;;;;;;5035488;28;20703;-78
2022/08/15 12:02:31;;;;;;;1.60;1.50;;;28.20;42.60;;;;;;5034776;28;20191;-75
2022/08/15 12:05:09;;;;;;;1.80;1.70;;;28.20;42.60;;;;;;5034543;28;20405;-76
2022/08/15 12:07:45;;;;;;;1.70;1.60;;;28.20;42.60;;;;;;5034617;28;20235;-75
2022/08/15 12:10:24;;;;;;;1.67;1.58;;;28.10;42.50;;;;;;5035226;28;20191;-75
2022/08/15 12:12:53;;;;;;;1.65;1.55;;;28.10;42.60;;;;;;5034640;28;20203;-75
2022/08/15 12:15:22;;;;;;;1.77;1.67;;;28.10;42.60;;;;;;5034447;28;20636;-76
2022/08/15 12:18:05;;;;;;;1.75;1.65;;;28.10;42.60;;;;;;5034357;28;20323;-76
2022/08/15 12:20:46;;;;;;;1.73;1.63;;;28.10;42.60;;;;;;5034374;28;20253;-76
2022/08/15 12:23:36;;;;;;;1.65;1.55;;;28.10;42.50;;;;;;5034294;28;20543;-76
2022/08/15 12:26:04;;;;;;;1.52;1.42;;;28.10;43.20;;;;;;5033223;28;20237;-75
2022/08/15 12:28:32;;;;;;;1.65;1.55;;;28.10;42.50;;;;;;5034005;28;20228;-75
2022/08/15 12:31:06;;;;;;;1.77;1.67;;;28.10;42.50;;;;;;5034040;28;20204;-75
2022/08/15 12:33:33;;;;;;;1.70;1.60;;;28.10;42.50;;;;;;5034135;28;20188;-76
2022/08/15 12:36:02;;;;;;;1.55;1.45;;;28.10;42.50;;;;;;5034242;28;20194;-76
2022/08/15 12:38:29;;;;;;;1.70;1.60;;;28.10;42.50;;;;;;5034133;28;20226;-76
2022/08/15 12:40:56;;;;;;;1.60;1.50;;;28.10;42.50;;;;;;5034121;28;20199;-76
2022/08/15 12:43:23;;;;;;;1.70;1.60;;;28.10;42.60;;;;;;5034970;28;20213;-75
2022/08/15 12:45:52;;;;;;;2.10;1.90;;;28.10;42.50;;;;;;5034052;28;20195;-75
2022/08/15 12:48:22;;;;;;;1.45;1.38;;;28.10;42.50;;;;;;5018040;28;20238;-78
2022/08/15 12:50:50;;;;;;;1.60;1.50;;;28.10;42.50;;;;;;5018299;28;20346;-78
2022/08/15 12:53:17;;;;;;;1.55;1.45;;;28.10;42.50;;;;;;5034248;28;20222;-78
2022/08/15 12:55:45;;;;;;;1.50;1.40;;;28.20;42.60;;;;;;5034087;28;20195;-78
2022/08/15 12:58:12;;;;;;;1.50;1.40;;;28.20;42.60;;;;;;5034609;28;20215;-78
2022/08/15 13:00:39;;;;;;;1.70;1.60;;;28.20;42.50;;;;;;5033873;28;20199;-78
2022/08/15 13:03:08;;;;;;;1.70;1.30;;;28.20;42.50;;;;;;5034289;28;20195;-78
2022/08/15 13:05:35;;;;;;;1.85;1.55;;;28.10;42.50;;;;;;5034179;28;20218;-78
2022/08/15 13:08:02;;;;;;;1.42;1.35;;;28.10;42.50;;;;;;5034444;28;20219;-78
2022/08/15 13:10:30;;;;;;;1.60;1.50;;;28.10;42.50;;;;;;5034186;28;20207;-78